Time,TemperatureF,DewpointF,PressureIn,WindDirection,WindDirectionDegrees,WindSpeedMPH,WindSpeedGustMPH,Humidity,HourlyPrecipIn,Conditions,Clouds,dailyrainin,SolarRadiationWatts/m^2,SoftwareType,DateUTC
2013-03-27 00:03:00,32.0,28.0,-100.00,West,265,6.0,9.0,85,0.00,,,0.26,0.000000,,2013-03-27 04:03:00,
2013-03-27 00:33:00,32.0,28.0,-100.00,West,264,6.0,10.0,85,0.00,,,0.26,0.000000,,2013-03-27 04:33:00,
2013-03-27 00:43:00,32.0,28.0,-100.00,West,264,6.0,10.0,85,0.00,,,0.26,0.000000,,2013-03-27 04:43:00,
2013-03-27 00:53:00,32.0,28.0,-100.00,West,264,6.0,10.0,85,0.00,,,0.26,0.000000,,2013-03-27 04:53:00,
2013-03-27 01:03:00,32.0,28.0,-100.00,West,264,6.0,10.0,85,0.00,,,0.26,0.000000,,2013-03-27 05:03:00,
2013-03-27 01:33:00,32.0,27.0,-100.00,West,274,6.0,10.0,82,0.00,,,0.26,0.000000,,2013-03-27 05:33:00,
2013-03-27 01:42:00,32.0,27.0,-100.00,West,274,6.0,10.0,82,0.00,,,0.26,0.000000,,2013-03-27 05:42:00,
2013-03-27 01:53:00,32.0,27.0,-100.00,West,274,6.0,10.0,82,0.00,,,0.26,0.000000,,2013-03-27 05:53:00,
2013-03-27 02:02:00,32.0,27.0,-100.00,West,274,6.0,10.0,82,0.00,,,0.26,0.000000,,2013-03-27 06:02:00,
2013-03-27 02:32:00,31.0,26.0,-100.00,West,275,7.0,11.0,81,0.00,,,0.26,0.000000,,2013-03-27 06:32:00,
2013-03-27 02:42:00,31.0,26.0,-100.00,West,275,7.0,11.0,81,0.00,,,0.26,0.000000,,2013-03-27 06:42:00,
2013-03-27 02:53:00,31.0,26.0,-100.00,West,275,7.0,11.0,81,0.00,,,0.26,0.000000,,2013-03-27 06:53:00,
2013-03-27 03:02:00,31.0,26.0,-100.00,West,275,7.0,11.0,81,0.00,,,0.26,0.000000,,2013-03-27 07:02:00,
2013-03-27 03:32:00,30.0,25.0,-100.00,West,263,6.0,9.0,81,0.00,,,0.26,0.000000,,2013-03-27 07:32:00,
2013-03-27 03:43:00,30.0,25.0,-100.00,West,263,6.0,9.0,81,0.00,,,0.26,0.000000,,2013-03-27 07:43:00,
2013-03-27 03:54:00,30.0,25.0,-100.00,West,263,6.0,9.0,81,0.00,,,0.26,0.000000,,2013-03-27 07:54:00,
2013-03-27 04:02:00,30.0,25.0,-100.00,West,263,6.0,9.0,81,0.00,,,0.26,0.000000,,2013-03-27 08:02:00,
2013-03-27 04:32:00,30.0,25.0,-100.00,West,269,5.0,11.0,80,0.00,,,0.26,0.000000,,2013-03-27 08:32:00,
2013-03-27 04:43:00,30.0,25.0,-100.00,West,269,5.0,11.0,80,0.00,,,0.26,0.000000,,2013-03-27 08:43:00,
2013-03-27 04:52:00,30.0,25.0,-100.00,West,269,5.0,11.0,80,0.00,,,0.26,0.000000,,2013-03-27 08:52:00,
2013-03-27 05:02:00,30.0,25.0,-100.00,West,269,5.0,11.0,80,0.00,,,0.26,0.000000,,2013-03-27 09:02:00,
2013-03-27 05:33:00,30.0,24.0,-100.00,West,275,6.0,12.0,79,0.00,,,0.26,0.000000,,2013-03-27 09:33:00,
2013-03-27 05:42:00,30.0,24.0,-100.00,West,275,6.0,12.0,79,0.00,,,0.26,0.000000,,2013-03-27 09:42:00,
2013-03-27 05:52:00,30.0,24.0,-100.00,West,275,6.0,12.0,79,0.00,,,0.26,0.000000,,2013-03-27 09:52:00,
2013-03-27 06:03:00,30.0,24.0,-100.00,West,275,6.0,12.0,79,0.00,,,0.26,0.000000,,2013-03-27 10:03:00,
2013-03-27 06:32:00,29.0,24.0,-100.00,West,260,6.0,10.0,81,0.00,,,0.26,0.000000,,2013-03-27 10:32:00,
2013-03-27 06:42:00,29.0,24.0,-100.00,West,260,6.0,10.0,81,0.00,,,0.26,0.000000,,2013-03-27 10:42:00,
2013-03-27 06:53:00,29.0,24.0,-100.00,West,260,6.0,10.0,81,0.00,,,0.26,0.000000,,2013-03-27 10:53:00,
2013-03-27 07:03:00,29.0,24.0,-100.00,West,260,6.0,10.0,81,0.00,,,0.26,0.000000,,2013-03-27 11:03:00,
2013-03-27 07:32:00,29.0,24.0,-100.00,West,266,7.0,12.0,81,0.00,,,0.26,0.000000,,2013-03-27 11:32:00,
2013-03-27 07:42:00,29.0,24.0,-100.00,West,266,7.0,12.0,81,0.00,,,0.26,0.000000,,2013-03-27 11:42:00,
2013-03-27 07:53:00,29.0,24.0,-100.00,West,266,7.0,12.0,81,0.00,,,0.26,0.000000,,2013-03-27 11:53:00,
2013-03-27 08:02:00,29.0,24.0,-100.00,West,266,7.0,12.0,81,0.00,,,0.26,0.000000,,2013-03-27 12:02:00,
2013-03-27 08:32:00,29.0,23.0,-100.00,West,262,7.0,14.0,79,0.00,,,0.26,16.000000,,2013-03-27 12:32:00,
2013-03-27 08:43:00,29.0,23.0,-100.00,West,262,7.0,14.0,79,0.00,,,0.26,16.000000,,2013-03-27 12:43:00,
2013-03-27 08:52:00,29.0,23.0,-100.00,West,262,7.0,14.0,79,0.00,,,0.26,16.000000,,2013-03-27 12:52:00,
2013-03-27 09:02:00,29.0,23.0,-100.00,West,262,7.0,14.0,79,0.00,,,0.26,16.000000,,2013-03-27 13:02:00,
2013-03-27 09:33:00,33.0,24.0,-100.00,West,268,7.0,12.0,69,0.00,,,0.26,220.000000,,2013-03-27 13:33:00,
2013-03-27 09:42:00,33.0,24.0,-100.00,West,268,7.0,12.0,69,0.00,,,0.26,220.000000,,2013-03-27 13:42:00,
2013-03-27 09:53:00,33.0,24.0,-100.00,West,268,7.0,12.0,69,0.00,,,0.26,220.000000,,2013-03-27 13:53:00,
2013-03-27 10:02:00,33.0,24.0,-100.00,West,268,7.0,12.0,69,0.00,,,0.26,220.000000,,2013-03-27 14:02:00,
2013-03-27 10:32:00,37.0,26.0,-100.00,West,265,7.0,12.0,63,0.00,,,0.26,449.000000,,2013-03-27 14:32:00,
2013-03-27 10:42:00,37.0,26.0,-100.00,West,265,7.0,12.0,63,0.00,,,0.26,449.000000,,2013-03-27 14:42:00,
2013-03-27 10:52:00,37.0,26.0,-100.00,West,265,7.0,12.0,63,0.00,,,0.26,449.000000,,2013-03-27 14:52:00,
2013-03-27 11:03:00,37.0,26.0,-100.00,West,265,7.0,12.0,63,0.00,,,0.26,449.000000,,2013-03-27 15:03:00,
2013-03-27 11:33:00,39.0,26.0,-100.00,WNW,287,6.0,13.0,60,0.00,,,0.26,670.000000,,2013-03-27 15:33:00,
2013-03-27 11:43:00,39.0,26.0,-100.00,WNW,287,6.0,13.0,60,0.00,,,0.26,670.000000,,2013-03-27 15:43:00,
2013-03-27 11:53:00,39.0,26.0,-100.00,WNW,287,6.0,13.0,60,0.00,,,0.26,670.000000,,2013-03-27 15:53:00,
2013-03-27 12:03:00,39.0,26.0,-100.00,WNW,287,6.0,13.0,60,0.00,,,0.26,670.000000,,2013-03-27 16:03:00,
2013-03-27 14:33:00,40.0,24.0,-100.00,West,260,5.0,14.0,53,-99.99,,,-99.99,293.000000,,2013-03-27 18:33:00,
2013-03-27 14:42:00,40.0,24.0,-100.00,West,260,5.0,14.0,53,-99.99,,,-99.99,293.000000,,2013-03-27 18:42:00,
2013-03-27 14:53:00,40.0,24.0,-100.00,West,260,5.0,14.0,53,-99.99,,,-99.99,293.000000,,2013-03-27 18:53:00,
2013-03-27 15:03:00,40.0,24.0,-100.00,West,260,5.0,14.0,53,-99.99,,,-99.99,293.000000,,2013-03-27 19:03:00,
2013-03-27 15:42:00,41.0,22.0,-100.00,West,266,6.0,13.0,47,0.00,,,0.07,426.000000,,2013-03-27 19:42:00,
2013-03-27 15:52:00,41.0,22.0,-100.00,West,266,6.0,13.0,47,0.00,,,0.07,426.000000,,2013-03-27 19:52:00,
2013-03-27 16:03:00,41.0,22.0,-100.00,West,266,6.0,13.0,47,0.00,,,0.07,426.000000,,2013-03-27 20:03:00,
2013-03-27 16:32:00,41.0,22.0,-100.00,West,274,9.0,15.0,47,0.00,,,0.07,307.000000,,2013-03-27 20:32:00,
2013-03-27 16:43:00,41.0,22.0,-100.00,West,274,9.0,15.0,47,0.00,,,0.07,307.000000,,2013-03-27 20:43:00,
2013-03-27 16:52:00,41.0,22.0,-100.00,West,274,9.0,15.0,47,0.00,,,0.07,307.000000,,2013-03-27 20:52:00,
2013-03-27 17:02:00,41.0,22.0,-100.00,West,274,9.0,15.0,47,0.00,,,0.07,307.000000,,2013-03-27 21:02:00,
2013-03-27 17:32:00,39.0,22.0,-100.00,West,278,9.0,18.0,50,0.00,,,0.04,213.000000,,2013-03-27 21:32:00,
2013-03-27 17:44:00,39.0,22.0,-100.00,West,278,9.0,18.0,50,0.00,,,0.04,213.000000,,2013-03-27 21:44:00,
2013-03-27 17:52:00,39.0,22.0,-100.00,West,278,9.0,18.0,50,0.00,,,0.04,213.000000,,2013-03-27 21:52:00,
2013-03-27 18:03:00,39.0,22.0,-100.00,West,278,9.0,18.0,50,0.00,,,0.04,213.000000,,2013-03-27 22:03:00,
2013-03-27 18:33:00,42.0,23.0,-100.00,West,263,8.0,16.0,47,0.00,,,0.04,227.000000,,2013-03-27 22:33:00,
2013-03-27 18:42:00,42.0,23.0,-100.00,West,263,8.0,16.0,47,0.00,,,0.04,227.000000,,2013-03-27 22:42:00,
2013-03-27 18:53:00,42.0,23.0,-100.00,West,263,8.0,16.0,47,0.00,,,0.04,227.000000,,2013-03-27 22:53:00,
2013-03-27 19:03:00,42.0,23.0,-100.00,West,263,8.0,16.0,47,0.00,,,0.04,227.000000,,2013-03-27 23:03:00,
2013-03-27 19:32:00,39.0,21.0,-100.00,West,271,6.0,16.0,49,0.00,,,0.01,121.000000,,2013-03-27 23:32:00,
2013-03-27 19:43:00,39.0,21.0,-100.00,West,271,6.0,16.0,49,0.00,,,0.01,121.000000,,2013-03-27 23:43:00,
2013-03-27 19:52:00,39.0,21.0,-100.00,West,271,6.0,16.0,49,0.00,,,0.01,121.000000,,2013-03-27 23:52:00,
2013-03-27 20:02:00,39.0,21.0,-100.00,West,271,6.0,16.0,49,0.00,,,0.01,121.000000,,2013-03-28 00:02:00,